Pagrindinis puslapis
METAR-TAF:

METAR-TAF

Oro uostai :

Ulan Batoras, Mongolija

platuma: 47-55N, ilguma: 106-52E, Aukštis: 1306 m

Dabartinis oras

Ataskaita buvo paskelbta 18 minutes, ne 06:30 UTC
Vėjas 2 kt nuo kintamojo kryptimis
Temperatūra -12°C
Drėgmė 61%
Slėgis 1014 hPa
Matomumas: 5000 m
Su prošvaistėmis ne aukštis 10000 ft
dūmai

METAR: ZMUB 120630Z VRB01MPS 5000NW FU BKN100 M12/M18 Q1014 NOSIG RMK QFE653.3 58 NW MO

Laikas: 14:48 (06:48 UTC)

Prognozė

Ataskaita buvo paskelbta 2 valandos ir 18 minutes, ne 04:30 UTC
Prognozė galioja nuo 12 metu 06 UTC su 13 metu 12 UTC
Vėjas 4 kt nuo kintamojo kryptimis
Matomumas: 6000 m
Išsisklaidę debesys ne aukštis 10000 ft

TAF: ZMUB 120430Z 1206/1312 VRB02MPS 6000 SCT100 TXM12/1207Z TNM25/1223Z

Orai ataskaitas ir orų prognozės (METAR, TAF).

turimą stotys yra geltonos ir raudonos taškus žemėlapyje.

Perkelti pele per norėdami pamatyti stoties vardą.

Tada spustelėkite, norėdami matyti oro stebėjimo ir prognozės.

Norėdami pakeisti žemėlapį: spustelėkite ant žalios mygtukų su juodo kryžiaus žemyn,; žalią mygtuką su brūkšneliu, jei norite nutolinti; arba žalių rodyklių gretimoms žemėlapius.


METAR-TAF: